Time;durP1;ratioP1;P1;durP2;ratioP2;P2;SDS_P1;SDS_P2;PMS_P1;PMS_P2;Temp;Humidity;BMP_temperature;BMP_pressure;BME280_temperature;BME280_humidity;BME280_pressure;Samples;Min_cycle;Max_cycle;Signal;HPM_P1;HPM_P2
2023/12/02 00:00:58;;;;;;;16.17;11.20;;;6.60;81.10;;;;;;5091794;28;20565;-62
2023/12/02 00:03:25;;;;;;;16.80;11.70;;;6.60;81.30;;;;;;5077008;28;20949;-61
2023/12/02 00:05:52;;;;;;;16.20;11.90;;;6.60;81.40;;;;;;5071814;28;20443;-63
2023/12/02 00:08:19;;;;;;;16.63;11.38;;;6.60;81.30;;;;;;5072005;28;20444;-64
2023/12/02 00:10:46;;;;;;;17.07;11.50;;;6.60;81.30;;;;;;5077355;28;20695;-63
2023/12/02 00:13:13;;;;;;;14.40;11.37;;;6.60;81.20;;;;;;5083671;28;20472;-62
2023/12/02 00:15:43;;;;;;;20.43;13.00;;;6.60;81.30;;;;;;5085197;28;20450;-63
2023/12/02 00:18:10;;;;;;;17.60;12.97;;;6.60;81.40;;;;;;5072019;28;20470;-63
2023/12/02 00:20:37;;;;;;;14.23;11.43;;;6.60;81.40;;;;;;5071403;28;20592;-61
2023/12/02 00:23:03;;;;;;;16.65;12.38;;;6.60;81.50;;;;;;5081153;28;20569;-62
2023/12/02 00:25:30;;;;;;;18.20;12.97;;;6.60;81.50;;;;;;5088704;28;20206;-63
2023/12/02 00:27:57;;;;;;;18.57;12.27;;;6.60;81.60;;;;;;5073874;28;20440;-63
2023/12/02 00:30:24;;;;;;;17.17;12.60;;;6.60;81.50;;;;;;5070985;28;20444;-64
2023/12/02 00:32:53;;;;;;;17.37;12.47;;;6.60;81.50;;;;;;5086417;28;20533;-64
2023/12/02 00:35:19;;;;;;;15.93;12.23;;;6.60;82.30;;;;;;5083165;28;20440;-63
2023/12/02 00:37:46;;;;;;;16.60;12.20;;;6.60;81.70;;;;;;5071247;28;20450;-64
2023/12/02 00:40:13;;;;;;;17.02;11.68;;;6.60;81.60;;;;;;5083256;28;20494;-62
2023/12/02 00:42:40;;;;;;;14.33;11.37;;;6.50;82.20;;;;;;5087097;28;20254;-64
2023/12/02 00:45:07;;;;;;;16.63;11.10;;;6.50;81.20;;;;;;5086033;28;20450;-62
2023/12/02 00:47:34;;;;;;;15.97;11.50;;;6.50;81.50;;;;;;5090366;28;20929;-62
2023/12/02 00:50:03;;;;;;;14.00;11.27;;;6.50;81.50;;;;;;5091045;28;20441;-63
2023/12/02 00:52:31;;;;;;;15.60;11.37;;;6.50;81.20;;;;;;5079100;28;20505;-63
2023/12/02 00:54:57;;;;;;;14.53;10.40;;;6.50;81.10;;;;;;5085173;28;20443;-63
2023/12/02 00:57:24;;;;;;;12.83;9.77;;;6.40;80.70;;;;;;5072673;28;20444;-63
2023/12/02 00:59:51;;;;;;;15.23;10.57;;;6.50;80.90;;;;;;5070765;28;20562;-64
2023/12/02 01:02:19;;;;;;;15.63;10.25;;;6.40;80.70;;;;;;5070808;28;20953;-63
2023/12/02 01:04:46;;;;;;;12.80;10.00;;;6.40;80.50;;;;;;5075126;28;20556;-63
2023/12/02 01:07:14;;;;;;;14.03;10.47;;;6.40;80.60;;;;;;5079229;28;20473;-62
2023/12/02 01:09:41;;;;;;;14.27;10.37;;;6.30;80.80;;;;;;5085408;28;20649;-64
2023/12/02 01:12:08;;;;;;;12.93;9.83;;;6.40;80.50;;;;;;5080179;28;20478;-63
2023/12/02 01:14:35;;;;;;;13.73;10.57;;;6.40;80.40;;;;;;5081110;28;20988;-62
2023/12/02 01:17:02;;;;;;;12.97;9.53;;;6.40;80.00;;;;;;5075585;28;20439;-63
2023/12/02 01:19:29;;;;;;;13.50;9.93;;;6.40;80.00;;;;;;5072435;28;20526;-63
2023/12/02 01:21:55;;;;;;;12.77;9.53;;;6.40;80.70;;;;;;5074689;28;20474;-63
2023/12/02 01:24:24;;;;;;;12.57;9.50;;;6.40;80.00;;;;;;5076642;28;20450;-64
2023/12/02 01:26:51;;;;;;;13.13;9.77;;;6.40;80.00;;;;;;5070682;28;20584;-62
2023/12/02 01:29:18;;;;;;;14.87;10.27;;;6.40;79.80;;;;;;5086161;28;20499;-63
2023/12/02 01:31:45;;;;;;;11.90;9.60;;;6.40;79.90;;;;;;5072578;28;20445;-64
2023/12/02 01:34:12;;;;;;;11.47;8.83;;;6.30;79.50;;;;;;5078300;28;20462;-62
2023/12/02 01:36:38;;;;;;;13.90;9.83;;;6.30;79.50;;;;;;5092795;28;20446;-63
2023/12/02 01:39:05;;;;;;;12.20;9.37;;;6.30;79.50;;;;;;5093060;28;20446;-62
2023/12/02 01:41:33;;;;;;;13.63;9.57;;;6.30;79.70;;;;;;5090414;28;20490;-63
2023/12/02 01:44:00;;;;;;;14.50;9.95;;;6.30;79.70;;;;;;5075621;28;20443;-63
2023/12/02 01:46:27;;;;;;;13.87;9.77;;;6.30;79.90;;;;;;5074889;28;20201;-63
2023/12/02 01:48:55;;;;;;;13.13;10.27;;;6.30;79.70;;;;;;5090974;28;20926;-63
2023/12/02 01:51:22;;;;;;;15.20;10.13;;;6.30;79.60;;;;;;5088881;28;20442;-63
2023/12/02 01:53:48;;;;;;;14.50;10.03;;;6.30;79.80;;;;;;5089906;28;21092;-62
2023/12/02 01:56:16;;;;;;;13.57;10.77;;;6.30;79.60;;;;;;5074269;28;20811;-63
2023/12/02 01:58:44;;;;;;;15.40;10.75;;;6.30;79.60;;;;;;5073216;28;20467;-62
2023/12/02 02:01:11;;;;;;;15.50;10.50;;;6.30;79.40;;;;;;5073752;28;20221;-63
2023/12/02 02:03:38;;;;;;;15.37;10.47;;;6.30;79.50;;;;;;5082589;28;20806;-63
2023/12/02 02:06:06;;;;;;;13.83;9.97;;;6.30;79.50;;;;;;5072815;28;20566;-61
2023/12/02 02:08:33;;;;;;;14.77;10.23;;;6.20;79.70;;;;;;5074817;28;20443;-63
2023/12/02 02:11:01;;;;;;;14.80;10.87;;;6.20;79.80;;;;;;5072980;28;20927;-63
2023/12/02 02:13:28;;;;;;;15.37;11.03;;;6.20;79.80;;;;;;5078491;28;20462;-63
2023/12/02 02:15:56;;;;;;;15.50;10.90;;;6.20;79.70;;;;;;5090884;28;20910;-63
2023/12/02 02:18:23;;;;;;;13.48;10.23;;;6.20;79.80;;;;;;5089846;28;20436;-62
2023/12/02 02:20:51;;;;;;;12.83;9.83;;;6.20;79.60;;;;;;5087890;28;20684;-63
2023/12/02 02:23:21;;;;;;;13.13;10.10;;;6.10;79.60;;;;;;5073887;28;20924;-62
2023/12/02 02:25:50;;;;;;;15.13;10.77;;;6.10;79.70;;;;;;5089410;28;20439;-63
2023/12/02 02:28:20;;;;;;;16.60;11.10;;;6.10;79.70;;;;;;5079628;28;20447;-64
2023/12/02 02:30:47;;;;;;;13.77;10.33;;;6.10;79.70;;;;;;5077953;28;20465;-64
2023/12/02 02:33:14;;;;;;;13.87;9.73;;;6.10;79.70;;;;;;5076731;28;20444;-63
2023/12/02 02:35:41;;;;;;;12.60;10.33;;;6.10;79.70;;;;;;5079450;28;20449;-62
2023/12/02 02:38:07;;;;;;;15.23;10.53;;;6.10;79.70;;;;;;5075386;28;20470;-62
2023/12/02 02:40:36;;;;;;;15.67;11.00;;;6.10;79.70;;;;;;5052949;28;1080514;-63
2023/12/02 02:43:03;;;;;;;15.87;11.60;;;6.10;80.40;;;;;;5091286;28;20197;-63
2023/12/02 02:45:30;;;;;;;16.60;12.50;;;6.10;79.90;;;;;;5087827;28;20470;-63
2023/12/02 02:47:57;;;;;;;17.08;12.68;;;6.10;79.90;;;;;;5091637;28;20871;-63
2023/12/02 02:50:24;;;;;;;16.40;12.00;;;6.10;80.20;;;;;;5093194;28;20204;-63
2023/12/02 02:52:51;;;;;;;18.17;12.57;;;6.10;80.10;;;;;;5076215;28;20473;-63
2023/12/02 02:55:18;;;;;;;19.85;13.02;;;6.10;80.10;;;;;;5090409;28;20469;-63
2023/12/02 02:57:46;;;;;;;18.48;13.05;;;6.10;79.70;;;;;;5090895;28;20212;-64
2023/12/02 03:00:14;;;;;;;17.30;12.13;;;6.10;79.70;;;;;;5073945;28;20225;-62
2023/12/02 03:02:41;;;;;;;17.03;12.43;;;6.00;79.50;;;;;;5081624;28;20478;-62
2023/12/02 03:05:08;;;;;;;17.38;12.27;;;6.00;79.50;;;;;;5072648;28;20451;-62
2023/12/02 03:07:34;;;;;;;16.80;11.60;;;6.00;79.20;;;;;;5073993;28;20304;-62
2023/12/02 03:10:01;;;;;;;17.53;13.00;;;5.90;79.50;;;;;;5084824;28;20541;-63
2023/12/02 03:12:28;;;;;;;17.27;12.83;;;6.00;79.60;;;;;;5080338;28;20220;-63
2023/12/02 03:14:57;;;;;;;17.80;12.37;;;6.00;79.60;;;;;;5090880;28;20463;-63
2023/12/02 03:17:24;;;;;;;18.13;12.73;;;6.00;79.70;;;;;;5093238;28;20533;-63
2023/12/02 03:19:50;;;;;;;17.57;12.10;;;6.00;79.60;;;;;;5090043;28;20450;-63
2023/12/02 03:22:17;;;;;;;15.18;11.20;;;6.00;79.60;;;;;;5088157;28;20497;-62
2023/12/02 03:24:45;;;;;;;17.63;11.30;;;6.00;79.60;;;;;;5087703;28;20209;-64
2023/12/02 03:27:11;;;;;;;16.67;11.77;;;5.90;79.40;;;;;;5087627;28;20440;-62
2023/12/02 03:29:38;;;;;;;14.65;11.50;;;5.90;79.40;;;;;;5054643;28;20207;-63
2023/12/02 03:32:07;;;;;;;15.57;11.33;;;5.90;79.10;;;;;;5082970;28;20207;-63
2023/12/02 03:34:33;;;;;;;18.13;12.57;;;5.90;79.20;;;;;;5091604;28;20470;-63
2023/12/02 03:37:00;;;;;;;14.47;11.43;;;5.80;79.80;;;;;;5079457;28;20435;-63
2023/12/02 03:39:27;;;;;;;15.10;10.37;;;5.80;79.20;;;;;;5072178;28;20451;-64
2023/12/02 03:41:54;;;;;;;16.45;10.90;;;5.80;79.20;;;;;;5080797;28;20485;-62
2023/12/02 03:44:21;;;;;;;15.17;11.20;;;5.80;79.10;;;;;;5092057;28;20220;-63
2023/12/02 03:46:47;;;;;;;14.47;10.07;;;5.80;79.00;;;;;;5074559;28;20485;-63
2023/12/02 03:49:16;;;;;;;14.90;10.45;;;5.80;78.90;;;;;;5072025;28;20458;-63
2023/12/02 03:51:42;;;;;;;12.63;10.05;;;5.80;78.90;;;;;;5079369;28;20197;-62
2023/12/02 03:54:09;;;;;;;15.83;10.83;;;5.80;78.80;;;;;;5090452;28;20227;-63
2023/12/02 03:56:39;;;;;;;13.07;9.57;;;5.80;78.60;;;;;;5073611;28;20454;-63
2023/12/02 03:59:05;;;;;;;12.55;9.57;;;5.80;78.60;;;;;;5091817;28;20447;-62
2023/12/02 04:01:32;;;;;;;14.10;9.43;;;5.80;78.60;;;;;;5081071;28;20718;-62
2023/12/02 04:03:59;;;;;;;12.32;9.15;;;5.80;78.30;;;;;;5089895;28;20442;-63
2023/12/02 04:06:28;;;;;;;12.10;9.02;;;5.70;78.30;;;;;;5092398;28;20306;-63
2023/12/02 04:08:54;;;;;;;13.23;9.77;;;5.70;78.10;;;;;;5091427;28;20200;-64
2023/12/02 04:11:21;;;;;;;13.82;9.90;;;5.60;78.10;;;;;;5086839;28;20193;-63
2023/12/02 04:13:48;;;;;;;12.23;9.47;;;5.60;78.30;;;;;;5087447;28;20223;-63
2023/12/02 04:16:15;;;;;;;11.50;8.95;;;5.70;78.50;;;;;;5095450;28;20536;-63
2023/12/02 04:18:42;;;;;;;10.20;7.83;;;5.70;78.70;;;;;;5091313;28;20316;-62
2023/12/02 04:21:09;;;;;;;13.30;9.40;;;5.70;79.30;;;;;;5079822;28;20573;-62
2023/12/02 04:23:37;;;;;;;15.95;9.50;;;5.70;78.40;;;;;;5090544;28;20994;-61
2023/12/02 04:26:06;;;;;;;11.97;9.00;;;5.70;78.30;;;;;;5091204;28;20250;-63
2023/12/02 04:28:33;;;;;;;12.80;9.10;;;5.70;78.10;;;;;;5091419;28;20504;-62
2023/12/02 04:31:00;;;;;;;12.63;9.17;;;5.70;77.80;;;;;;5091156;28;20442;-63
2023/12/02 04:33:27;;;;;;;13.37;9.07;;;5.60;77.70;;;;;;5071399;28;20447;-62
2023/12/02 04:35:54;;;;;;;12.83;9.23;;;5.70;78.00;;;;;;5072866;28;20467;-62
2023/12/02 04:38:21;;;;;;;11.00;9.00;;;5.70;78.10;;;;;;5077599;28;20484;-63
2023/12/02 04:40:49;;;;;;;11.30;9.10;;;5.70;78.20;;;;;;5073195;28;20458;-63
2023/12/02 04:43:16;;;;;;;12.95;9.25;;;5.70;77.90;;;;;;5089516;28;20490;-63
2023/12/02 04:45:43;;;;;;;14.87;8.80;;;5.60;77.50;;;;;;5088398;28;20653;-64
2023/12/02 04:48:11;;;;;;;11.53;8.53;;;5.60;77.60;;;;;;5075901;28;20477;-62
2023/12/02 04:50:38;;;;;;;10.63;8.20;;;5.60;77.40;;;;;;5088152;28;20542;-62
2023/12/02 04:53:05;;;;;;;11.10;8.73;;;5.60;77.10;;;;;;5091338;28;20192;-64
2023/12/02 04:55:32;;;;;;;11.53;7.90;;;5.50;77.20;;;;;;5089578;28;20446;-64
2023/12/02 04:58:01;;;;;;;11.98;8.75;;;5.50;77.50;;;;;;5078150;28;20442;-62
2023/12/02 05:00:27;;;;;;;10.75;8.18;;;5.60;77.70;;;;;;5079394;28;20215;-62
2023/12/02 05:02:54;;;;;;;11.30;8.27;;;5.60;77.60;;;;;;5090848;28;20234;-64
2023/12/02 05:05:21;;;;;;;11.98;8.05;;;5.60;77.30;;;;;;5091316;28;20239;-63
2023/12/02 05:07:50;;;;;;;10.32;8.35;;;5.60;77.00;;;;;;5090342;28;20211;-62
2023/12/02 05:10:17;;;;;;;11.70;8.57;;;5.50;77.00;;;;;;5093921;28;20292;-62
2023/12/02 05:12:44;;;;;;;10.40;8.60;;;5.50;77.00;;;;;;5093304;28;20469;-62
2023/12/02 05:15:12;;;;;;;11.30;8.50;;;5.50;76.80;;;;;;5086397;28;20475;-62
2023/12/02 05:17:39;;;;;;;11.57;8.38;;;5.50;77.00;;;;;;5075442;28;20521;-62
2023/12/02 05:20:10;;;;;;;12.70;9.35;;;5.50;77.00;;;;;;5078583;28;20227;-63
2023/12/02 05:22:37;;;;;;;30.53;22.47;;;5.50;76.60;;;;;;5088379;28;20216;-62
2023/12/02 05:25:04;;;;;;;28.45;19.50;;;5.50;76.60;;;;;;5095540;28;20824;-64
2023/12/02 05:27:31;;;;;;;23.70;18.50;;;5.50;76.60;;;;;;5093668;28;20296;-63
2023/12/02 05:29:58;;;;;;;15.60;13.98;;;5.50;76.60;;;;;;5093232;28;20193;-64
2023/12/02 05:32:26;;;;;;;10.15;8.88;;;5.50;77.00;;;;;;5093659;28;20210;-62
2023/12/02 05:34:53;;;;;;;10.00;8.37;;;5.50;76.90;;;;;;5087569;28;20227;-63
2023/12/02 05:37:20;;;;;;;9.07;7.97;;;5.50;76.80;;;;;;5059183;28;20460;-63
2023/12/02 05:39:47;;;;;;;9.38;7.65;;;5.40;76.50;;;;;;5088172;28;20202;-62
2023/12/02 05:42:14;;;;;;;9.45;7.32;;;5.50;76.90;;;;;;5083666;28;20222;-63
2023/12/02 05:44:41;;;;;;;10.43;7.85;;;5.40;77.00;;;;;;5077203;28;20319;-64
2023/12/02 05:47:08;;;;;;;9.27;7.22;;;5.40;76.80;;;;;;5082927;28;20193;-63
2023/12/02 05:49:36;;;;;;;9.65;7.47;;;5.40;76.90;;;;;;5074002;28;20215;-62
2023/12/02 05:52:06;;;;;;;10.10;7.32;;;5.30;77.00;;;;;;5093256;28;20219;-63
2023/12/02 05:54:34;;;;;;;10.20;7.53;;;5.40;77.10;;;;;;5059512;28;20679;-63
2023/12/02 05:57:01;;;;;;;9.40;7.25;;;5.40;77.10;;;;;;5094563;28;20559;-63
2023/12/02 05:59:28;;;;;;;9.20;7.30;;;5.40;77.10;;;;;;5093698;28;20201;-62
2023/12/02 06:01:54;;;;;;;9.45;7.15;;;5.40;77.10;;;;;;5075283;28;20221;-63
2023/12/02 06:04:21;;;;;;;8.82;6.85;;;5.40;77.10;;;;;;5075139;28;20240;-62
2023/12/02 06:06:49;;;;;;;10.13;7.45;;;5.40;77.00;;;;;;5074337;28;20691;-63
2023/12/02 06:09:16;;;;;;;9.55;7.65;;;5.40;76.70;;;;;;5086458;28;20291;-63
2023/12/02 06:11:44;;;;;;;8.15;6.53;;;5.40;76.50;;;;;;5077872;28;20224;-63
2023/12/02 06:14:11;;;;;;;10.43;6.28;;;5.30;76.30;;;;;;5076384;28;20274;-63
2023/12/02 06:16:37;;;;;;;9.23;7.50;;;5.30;76.10;;;;;;5076389;28;20703;-63
2023/12/02 06:19:04;;;;;;;9.30;7.30;;;5.40;76.00;;;;;;5082330;28;20222;-64
2023/12/02 06:21:31;;;;;;;7.63;6.20;;;5.30;76.00;;;;;;5080561;28;20209;-63
2023/12/02 06:23:59;;;;;;;8.82;6.65;;;5.30;75.90;;;;;;5094431;28;20361;-62
2023/12/02 06:26:26;;;;;;;9.23;6.78;;;5.30;76.00;;;;;;5082775;28;20208;-63
2023/12/02 06:28:53;;;;;;;8.60;6.53;;;5.30;75.90;;;;;;5074146;28;20239;-64
2023/12/02 06:31:20;;;;;;;8.90;7.18;;;5.30;76.00;;;;;;5080391;28;20197;-63
2023/12/02 06:33:47;;;;;;;9.00;6.83;;;5.30;76.00;;;;;;5059329;28;20221;-62
2023/12/02 06:36:14;;;;;;;8.55;6.53;;;5.40;76.10;;;;;;5083910;28;20439;-62
2023/12/02 06:38:41;;;;;;;9.80;6.63;;;5.30;75.80;;;;;;5092416;28;20205;-63
2023/12/02 06:41:10;;;;;;;9.20;6.78;;;5.30;75.50;;;;;;5086847;28;20312;-64
2023/12/02 06:43:36;;;;;;;8.95;6.45;;;5.30;75.90;;;;;;5089867;28;20228;-64
2023/12/02 06:46:03;;;;;;;11.23;8.38;;;5.30;75.60;;;;;;5093337;28;20239;-64
2023/12/02 06:48:30;;;;;;;13.23;11.40;;;5.30;75.50;;;;;;5094483;28;20308;-62
2023/12/02 06:50:57;;;;;;;24.60;20.05;;;5.30;75.50;;;;;;5089764;28;20194;-62
2023/12/02 06:53:24;;;;;;;17.25;13.90;;;5.40;75.30;;;;;;5079245;28;20307;-62
2023/12/02 06:55:50;;;;;;;12.50;10.37;;;5.40;75.50;;;;;;5087173;28;20425;-62
2023/12/02 06:58:19;;;;;;;8.93;7.18;;;5.40;75.60;;;;;;5085286;28;20462;-63
2023/12/02 07:00:45;;;;;;;10.50;8.43;;;5.40;75.30;;;;;;5086440;28;20297;-61
2023/12/02 07:03:12;;;;;;;8.38;7.30;;;5.40;75.40;;;;;;5080235;28;20490;-63
2023/12/02 07:05:39;;;;;;;10.85;7.80;;;5.30;75.30;;;;;;5083225;28;20204;-62
2023/12/02 07:08:06;;;;;;;9.45;7.15;;;5.40;75.60;;;;;;5074337;28;20205;-62
2023/12/02 07:10:33;;;;;;;9.05;6.95;;;5.40;75.40;;;;;;5079995;28;20220;-63
2023/12/02 07:13:00;;;;;;;8.73;7.00;;;5.40;75.20;;;;;;5087356;28;20227;-63
2023/12/02 07:15:30;;;;;;;9.15;7.40;;;5.40;75.00;;;;;;5081011;28;20232;-62
2023/12/02 07:17:57;;;;;;;9.65;7.35;;;5.40;75.20;;;;;;5093524;28;20652;-63
2023/12/02 07:20:24;;;;;;;8.80;6.80;;;5.40;75.30;;;;;;5092966;28;20205;-63
2023/12/02 07:22:51;;;;;;;9.93;7.43;;;5.40;75.00;;;;;;5080396;28;20217;-62
2023/12/02 07:25:18;;;;;;;10.50;8.20;;;5.40;75.00;;;;;;5078010;28;20204;-62
2023/12/02 07:27:45;;;;;;;10.43;7.70;;;5.40;75.00;;;;;;5093618;28;20446;-62
2023/12/02 07:30:12;;;;;;;11.25;8.52;;;5.40;74.80;;;;;;5085058;28;20466;-63
2023/12/02 07:32:40;;;;;;;9.13;7.35;;;5.40;75.00;;;;;;5082220;28;20316;-62
2023/12/02 07:35:08;;;;;;;10.70;6.90;;;5.40;74.90;;;;;;5092999;28;20211;-63
2023/12/02 07:37:35;;;;;;;8.27;7.07;;;5.40;74.70;;;;;;5093284;28;20553;-62
2023/12/02 07:40:02;;;;;;;9.70;7.70;;;5.30;74.40;;;;;;5091999;28;20447;-63
2023/12/02 07:42:29;;;;;;;10.23;7.65;;;5.40;74.20;;;;;;5092560;28;20489;-63
2023/12/02 07:44:56;;;;;;;10.38;7.88;;;5.40;74.40;;;;;;5073364;28;20201;-63
2023/12/02 07:47:23;;;;;;;10.00;7.40;;;5.40;75.00;;;;;;5085178;28;20209;-61
2023/12/02 07:49:51;;;;;;;8.52;7.10;;;5.40;74.10;;;;;;5075832;28;20205;-62
2023/12/02 07:52:18;;;;;;;9.27;7.18;;;5.40;74.00;;;;;;5080853;28;20745;-63
2023/12/02 07:54:45;;;;;;;9.05;6.93;;;5.40;74.10;;;;;;5091387;28;20626;-61
2023/12/02 07:57:12;;;;;;;8.20;6.80;;;5.40;74.00;;;;;;5092550;28;20287;-61
2023/12/02 07:59:39;;;;;;;10.67;7.80;;;5.30;73.70;;;;;;5091984;28;20458;-62
2023/12/02 08:02:06;;;;;;;8.10;6.93;;;5.40;73.60;;;;;;5082213;28;21032;-61
2023/12/02 08:04:33;;;;;;;8.05;5.93;;;5.30;73.70;;;;;;5092435;28;20205;-62
2023/12/02 08:07:01;;;;;;;8.25;6.55;;;5.30;73.80;;;;;;5092584;28;20204;-62
2023/12/02 08:09:28;;;;;;;8.75;6.78;;;5.30;74.10;;;;;;5092664;28;20529;-61
2023/12/02 08:11:55;;;;;;;8.45;6.68;;;5.30;73.90;;;;;;5089795;28;20224;-61
2023/12/02 08:14:23;;;;;;;8.10;6.68;;;5.30;73.60;;;;;;5082123;28;20189;-61
2023/12/02 08:16:50;;;;;;;8.48;6.65;;;5.30;73.80;;;;;;5091495;28;20282;-62
2023/12/02 08:19:17;;;;;;;8.73;6.60;;;5.40;74.00;;;;;;5092025;28;20199;-62
2023/12/02 08:21:44;;;;;;;7.95;6.30;;;5.40;74.00;;;;;;5092114;28;20965;-63
2023/12/02 08:24:13;;;;;;;7.60;6.28;;;5.40;74.00;;;;;;5090409;28;20224;-62
2023/12/02 08:26:40;;;;;;;6.88;5.88;;;5.40;73.80;;;;;;5075848;28;20205;-61
2023/12/02 08:29:09;;;;;;;7.32;5.97;;;5.40;73.70;;;;;;5075808;28;20214;-63
2023/12/02 08:31:36;;;;;;;6.88;5.65;;;5.40;73.60;;;;;;5084467;28;20233;-63
2023/12/02 08:34:03;;;;;;;7.53;6.40;;;5.50;73.90;;;;;;5075780;28;20216;-63
2023/12/02 08:36:30;;;;;;;6.80;5.60;;;5.50;73.90;;;;;;5072651;28;20508;-63
2023/12/02 08:38:56;;;;;;;6.35;5.10;;;5.50;73.90;;;;;;5071908;28;20251;-63
2023/12/02 08:41:25;;;;;;;6.20;4.97;;;5.40;73.80;;;;;;5092319;28;20582;-63
2023/12/02 08:43:51;;;;;;;6.50;5.40;;;5.40;73.30;;;;;;5080804;28;20697;-63
2023/12/02 08:46:19;;;;;;;6.13;5.43;;;5.40;73.60;;;;;;5098807;28;20264;-62
2023/12/02 08:48:46;;;;;;;6.03;4.97;;;5.40;73.70;;;;;;5092453;28;20210;-63
2023/12/02 08:51:13;;;;;;;5.95;4.90;;;5.40;73.40;;;;;;5079454;28;20242;-66
2023/12/02 08:53:40;;;;;;;6.20;4.85;;;5.40;73.50;;;;;;5092568;28;20279;-63
2023/12/02 08:56:08;;;;;;;5.80;4.83;;;5.40;73.50;;;;;;5083432;28;20284;-64
2023/12/02 08:58:36;;;;;;;5.53;4.68;;;5.40;73.00;;;;;;5085348;28;20454;-63
2023/12/02 09:01:04;;;;;;;5.77;4.43;;;5.30;73.00;;;;;;5111211;28;20211;-63
2023/12/02 09:03:31;;;;;;;6.43;4.70;;;5.40;73.00;;;;;;5092322;28;21058;-62
2023/12/02 09:05:58;;;;;;;5.68;4.78;;;5.40;72.70;;;;;;5074495;28;20211;-63
2023/12/02 09:08:25;;;;;;;6.07;5.20;;;5.40;72.60;;;;;;5085272;28;20239;-63
2023/12/02 09:10:52;;;;;;;6.63;4.75;;;5.40;72.50;;;;;;5092337;28;20740;-63
2023/12/02 09:13:42;;;;;;;7.45;5.03;;;5.40;72.50;;;;;;5077176;28;20217;-62
2023/12/02 09:16:11;;;;;;;5.85;4.47;;;5.40;72.60;;;;;;5083020;28;20202;-63
2023/12/02 09:18:38;;;;;;;5.50;4.60;;;5.40;72.60;;;;;;5100976;22;20332;-64
2023/12/02 09:21:37;;;;;;;7.38;5.03;;;5.50;72.60;;;;;;5077325;28;20201;-63
2023/12/02 09:24:06;;;;;;;5.28;4.78;;;5.50;72.30;;;;;;5070375;28;20300;-62
2023/12/02 09:26:35;;;;;;;5.77;4.87;;;5.50;72.40;;;;;;5080243;28;20203;-63
2023/12/02 09:29:05;;;;;;;5.70;4.70;;;5.50;72.40;;;;;;5080622;28;20439;-61
2023/12/02 09:31:33;;;;;;;6.25;5.20;;;5.50;72.00;;;;;;5079165;28;20221;-63
2023/12/02 09:34:03;;;;;;;5.40;4.78;;;5.50;72.10;;;;;;5082936;28;20215;-61
2023/12/02 09:36:34;;;;;;;5.27;4.77;;;5.50;72.30;;;;;;5071484;28;20224;-63
2023/12/02 09:39:48;;;;;;;7.10;6.07;;;5.60;72.20;;;;;;5086353;28;20930;-61
2023/12/02 09:42:19;;;;;;;6.10;4.80;;;5.60;72.30;;;;;;5037839;28;20268;-62
2023/12/02 09:44:55;;;;;;;5.53;4.47;;;5.60;71.90;;;;;;5073261;28;20225;-64
2023/12/02 09:47:25;;;;;;;5.97;4.78;;;5.60;71.90;;;;;;5082568;28;20192;-62
2023/12/02 09:50:04;;;;;;;7.13;5.70;;;5.60;71.70;;;;;;5061143;28;20224;-62
2023/12/02 09:52:49;;;;;;;6.68;5.40;;;5.60;71.40;;;;;;5073253;28;20439;-62
2023/12/02 09:55:19;;;;;;;6.88;5.85;;;5.60;71.70;;;;;;5074455;28;20607;-64
2023/12/02 09:57:57;;;;;;;8.18;7.38;;;5.60;72.00;;;;;;5086533;28;20201;-61
2023/12/02 10:00:36;;;;;;;7.50;6.25;;;5.60;71.70;;;;;;5087192;28;20227;-62
2023/12/02 10:03:49;;;;;;;6.30;5.05;;;5.60;71.50;;;;;;5089861;28;20212;-62
2023/12/02 10:06:26;;;;;;;6.00;5.40;;;5.60;71.20;;;;;;5081519;28;20303;-64
2023/12/02 10:09:02;;;;;;;7.10;5.67;;;5.60;71.80;;;;;;5095603;28;20291;-63
2023/12/02 10:11:36;;;;;;;6.33;5.67;;;5.60;72.00;;;;;;5092295;28;20493;-63
2023/12/02 10:14:11;;;;;;;6.85;5.60;;;5.60;71.80;;;;;;5073195;28;20489;-61
2023/12/02 10:16:42;;;;;;;7.83;5.97;;;5.70;71.80;;;;;;5067021;28;20248;-63
2023/12/02 10:19:13;;;;;;;6.15;5.25;;;5.70;71.80;;;;;;5070044;28;20554;-61
2023/12/02 10:21:46;;;;;;;6.53;5.50;;;5.60;71.70;;;;;;5086003;28;20208;-63
2023/12/02 10:24:19;;;;;;;5.60;5.00;;;5.60;71.70;;;;;;5084082;28;20513;-62
2023/12/02 10:26:59;;;;;;;5.77;5.17;;;5.60;71.80;;;;;;5078960;28;20434;-61
2023/12/02 10:29:32;;;;;;;5.75;5.15;;;5.60;71.80;;;;;;5094444;28;20554;-63
2023/12/02 10:32:08;;;;;;;5.97;5.00;;;5.60;71.70;;;;;;5086937;28;20197;-62
2023/12/02 10:34:43;;;;;;;5.60;5.00;;;5.60;71.70;;;;;;5094456;28;20299;-64
2023/12/02 10:37:14;;;;;;;6.00;5.30;;;5.60;71.60;;;;;;5093974;28;20465;-64
2023/12/02 10:39:43;;;;;;;6.03;5.20;;;5.50;71.40;;;;;;5079569;28;20216;-62
2023/12/02 10:42:17;;;;;;;7.95;5.75;;;5.60;71.60;;;;;;5085036;28;20205;-62
2023/12/02 10:44:47;;;;;;;7.03;6.00;;;5.60;71.70;;;;;;5073887;28;20344;-64
2023/12/02 10:47:18;;;;;;;6.17;5.57;;;5.50;71.60;;;;;;5073650;28;20448;-64
2023/12/02 10:49:46;;;;;;;10.57;5.50;;;5.60;72.00;;;;;;5074310;28;20538;-63
2023/12/02 10:52:15;;;;;;;6.43;5.43;;;5.50;71.60;;;;;;5082763;28;20219;-61
2023/12/02 10:54:47;;;;;;;6.50;4.93;;;5.50;71.40;;;;;;5075559;28;20258;-62
2023/12/02 10:57:15;;;;;;;5.57;5.07;;;5.50;71.10;;;;;;5073865;28;20552;-62
2023/12/02 10:59:53;;;;;;;5.10;4.60;;;5.50;71.20;;;;;;5074277;28;20293;-63
2023/12/02 11:02:38;;;;;;;6.03;4.88;;;5.50;71.40;;;;;;5078491;28;20201;-64
2023/12/02 11:05:19;;;;;;;6.90;5.20;;;5.50;71.60;;;;;;5073177;28;20267;-63
2023/12/02 11:07:49;;;;;;;5.63;5.03;;;5.50;71.60;;;;;;5063398;28;20213;-64
2023/12/02 11:10:20;;;;;;;5.72;4.93;;;5.50;71.30;;;;;;5072764;28;20198;-62
2023/12/02 11:12:52;;;;;;;5.88;4.60;;;5.40;71.50;;;;;;5084530;28;20201;-63
2023/12/02 11:15:22;;;;;;;4.95;4.45;;;5.50;71.60;;;;;;5089770;28;20235;-62
2023/12/02 11:18:00;;;;;;;4.25;3.88;;;5.50;71.10;;;;;;5062010;28;20216;-64
2023/12/02 11:20:37;;;;;;;4.40;4.00;;;5.50;71.00;;;;;;5074049;28;20230;-62
2023/12/02 11:23:21;;;;;;;4.47;4.00;;;5.50;70.70;;;;;;5092116;28;20494;-63
2023/12/02 11:26:03;;;;;;;5.03;3.90;;;5.50;70.40;;;;;;5092390;28;20632;-62
2023/12/02 11:28:37;;;;;;;4.28;3.67;;;5.40;70.30;;;;;;5071684;28;20244;-62
2023/12/02 11:31:20;;;;;;;4.67;4.17;;;5.50;70.10;;;;;;5067332;28;20296;-64
2023/12/02 11:34:04;;;;;;;4.22;3.83;;;5.50;70.10;;;;;;5064666;28;20450;-61
2023/12/02 11:36:38;;;;;;;4.47;4.07;;;5.50;70.10;;;;;;5070964;28;20255;-63
2023/12/02 11:39:15;;;;;;;4.80;4.30;;;5.40;70.10;;;;;;5091735;28;20307;-63
2023/12/02 11:41:51;;;;;;;5.13;4.35;;;5.40;70.40;;;;;;5089640;28;20208;-62
2023/12/02 11:44:25;;;;;;;4.75;4.35;;;5.40;70.10;;;;;;5071808;28;20300;-63
2023/12/02 11:47:12;;;;;;;5.10;4.53;;;5.40;70.20;;;;;;5072830;28;20216;-62
2023/12/02 11:49:52;;;;;;;4.53;4.00;;;5.40;70.00;;;;;;5051994;28;20216;-64
2023/12/02 11:52:27;;;;;;;5.45;4.80;;;5.50;70.10;;;;;;5067446;28;20239;-62
2023/12/02 11:55:08;;;;;;;5.07;4.32;;;5.50;70.20;;;;;;5087071;28;20196;-64
2023/12/02 11:57:47;;;;;;;5.07;4.38;;;5.50;70.10;;;;;;5077551;28;20208;-62
2023/12/02 12:00:22;;;;;;;4.72;4.10;;;5.40;69.60;;;;;;5072467;28;20205;-63
2023/12/02 12:03:28;;;;;;;4.32;3.92;;;5.40;69.60;;;;;;5071408;28;20215;-62
2023/12/02 12:06:09;;;;;;;5.13;4.40;;;5.40;69.40;;;;;;5081693;28;20216;-63
2023/12/02 12:08:46;;;;;;;5.63;4.35;;;5.40;69.50;;;;;;5090345;28;20287;-63
2023/12/02 12:11:17;;;;;;;5.22;3.97;;;5.40;69.40;;;;;;5082576;28;20207;-62
2023/12/02 12:13:46;;;;;;;5.27;4.10;;;5.40;69.60;;;;;;5073075;28;20199;-64
2023/12/02 12:16:14;;;;;;;4.47;3.90;;;5.40;69.90;;;;;;5072908;28;20479;-62
2023/12/02 12:18:42;;;;;;;5.10;4.10;;;5.40;69.70;;;;;;5066156;28;20745;-62
2023/12/02 12:21:11;;;;;;;4.30;3.90;;;5.40;69.20;;;;;;5051936;28;20884;-62
2023/12/02 12:23:38;;;;;;;4.80;4.30;;;5.40;69.10;;;;;;5071479;28;20274;-62
2023/12/02 12:26:06;;;;;;;5.20;4.40;;;5.40;68.90;;;;;;5074219;28;20463;-63
2023/12/02 12:28:35;;;;;;;4.30;3.90;;;5.40;69.00;;;;;;5072147;28;20931;-63
2023/12/02 12:31:01;;;;;;;4.50;4.10;;;5.40;69.70;;;;;;5072244;28;20236;-63
2023/12/02 12:33:30;;;;;;;5.50;3.97;;;5.50;68.90;;;;;;5063574;28;20677;-62
2023/12/02 12:35:57;;;;;;;4.30;3.90;;;5.40;68.40;;;;;;5072773;28;20470;-61
2023/12/02 12:38:29;;;;;;;6.28;4.78;;;5.50;68.70;;;;;;5071853;28;20447;-63
2023/12/02 12:40:57;;;;;;;4.95;4.40;;;5.40;68.50;;;;;;5072104;28;20205;-63
2023/12/02 12:43:24;;;;;;;6.57;4.40;;;5.50;68.50;;;;;;5057524;28;20227;-62
2023/12/02 12:45:52;;;;;;;4.72;4.32;;;5.40;68.90;;;;;;5085335;28;20355;-63
2023/12/02 12:48:26;;;;;;;5.15;4.60;;;5.50;68.80;;;;;;5091527;28;20232;-62
2023/12/02 12:50:55;;;;;;;5.10;4.47;;;5.40;68.90;;;;;;5091772;28;20224;-63
2023/12/02 12:53:31;;;;;;;4.47;4.07;;;5.40;68.40;;;;;;5090006;28;20446;-63
2023/12/02 12:56:07;;;;;;;4.67;4.13;;;5.40;68.50;;;;;;5082283;28;20307;-64
2023/12/02 12:58:37;;;;;;;4.75;4.10;;;5.50;68.30;;;;;;5072051;28;20532;-63